createdAt,value
2022-09-15T00:01:24.221Z,20.71
2022-09-15T00:04:30.229Z,20.71
2022-09-15T00:07:34.477Z,20.72
2022-09-15T00:10:40.373Z,20.70
2022-09-15T00:13:47.119Z,20.71
2022-09-15T00:16:53.011Z,20.70
2022-09-15T00:19:59.643Z,20.69
2022-09-15T00:23:05.545Z,20.67
2022-09-15T00:26:13.743Z,20.65
2022-09-15T00:29:19.698Z,20.62
2022-09-15T00:32:23.905Z,20.59
2022-09-15T00:35:30.076Z,20.55
2022-09-15T00:38:37.377Z,20.58
2022-09-15T00:41:43.661Z,20.59
2022-09-15T00:44:56.603Z,20.60
2022-09-15T00:48:02.774Z,20.62
2022-09-15T00:51:10.969Z,20.63
2022-09-15T00:54:21.413Z,20.64
2022-09-15T00:57:37.275Z,20.64
2022-09-15T01:00:47.883Z,20.65
2022-09-15T01:03:53.815Z,20.66
2022-09-15T01:07:04.243Z,20.66
2022-09-15T01:10:14.647Z,20.66
2022-09-15T01:13:20.929Z,20.66
2022-09-15T01:16:34.453Z,20.66
2022-09-15T01:20:25.026Z,20.64
2022-09-15T01:23:50.823Z,20.59
2022-09-15T01:27:37.577Z,20.55
2022-09-15T01:30:41.449Z,20.54
2022-09-15T01:33:51.474Z,20.54
2022-09-15T01:37:03.438Z,20.54
2022-09-15T01:40:13.449Z,20.55
2022-09-15T01:43:21.742Z,20.56
2022-09-15T01:46:31.027Z,20.56
2022-09-15T01:49:44.102Z,20.57
2022-09-15T01:52:53.469Z,20.56
2022-09-15T01:56:02.626Z,20.56
2022-09-15T01:59:09.566Z,20.56
2022-09-15T02:02:20.493Z,20.56
2022-09-15T02:05:33.821Z,20.56
2022-09-15T02:08:45.402Z,20.57
2022-09-15T02:12:01.909Z,20.57
2022-09-15T02:15:12.205Z,20.57
2022-09-15T02:18:24.486Z,20.58
2022-09-15T02:21:37.447Z,20.58
2022-09-15T02:24:47.194Z,20.56
2022-09-15T02:27:56.593Z,20.55
2022-09-15T02:31:05.275Z,20.53
2022-09-15T02:34:16.211Z,20.53
2022-09-15T02:37:24.480Z,20.53
2022-09-15T02:40:32.413Z,20.53
2022-09-15T02:43:47.366Z,20.53
2022-09-15T02:46:53.665Z,20.53
2022-09-15T02:49:59.537Z,20.52
2022-09-15T02:53:06.158Z,20.51
2022-09-15T02:56:12.306Z,20.48
2022-09-15T02:59:18.415Z,20.45
2022-09-15T03:02:25.119Z,20.42
2022-09-15T03:05:32.338Z,20.40
2022-09-15T03:08:38.271Z,20.38
2022-09-15T03:11:44.123Z,20.36
2022-09-15T03:14:50.562Z,20.34
2022-09-15T03:17:56.946Z,20.31
2022-09-15T03:21:03.589Z,20.27
2022-09-15T03:24:09.630Z,20.24
2022-09-15T03:27:14.274Z,20.18
2022-09-15T03:30:20.262Z,20.10
2022-09-15T03:33:26.745Z,20.07
2022-09-15T03:36:32.657Z,20.00
2022-09-15T03:39:38.764Z,19.99
2022-09-15T03:42:44.629Z,19.98
2022-09-15T03:45:50.524Z,19.99
2022-09-15T03:48:57.141Z,19.99
2022-09-15T03:52:03.557Z,19.99
2022-09-15T03:55:10.439Z,19.98
2022-09-15T03:58:16.563Z,19.98
2022-09-15T04:01:23.250Z,19.98
2022-09-15T04:04:29.623Z,19.98
2022-09-15T04:07:35.478Z,19.97
2022-09-15T04:10:43.090Z,19.96
2022-09-15T04:13:49.430Z,19.95
2022-09-15T04:16:55.302Z,19.96
2022-09-15T04:20:01.183Z,19.95
2022-09-15T04:23:07.097Z,19.95
2022-09-15T04:26:20.350Z,19.95
2022-09-15T04:29:26.410Z,19.94
2022-09-15T04:32:31.226Z,19.93
2022-09-15T04:35:37.078Z,19.89
2022-09-15T04:38:43.509Z,19.89
2022-09-15T04:41:49.388Z,19.88
2022-09-15T04:44:55.279Z,19.90
2022-09-15T04:48:01.456Z,19.92
2022-09-15T04:51:09.715Z,19.93
2022-09-15T04:54:15.578Z,19.93
2022-09-15T04:57:21.464Z,19.94
2022-09-15T05:00:27.871Z,19.92
2022-09-15T05:03:36.398Z,19.93
2022-09-15T05:06:42.298Z,19.94
2022-09-15T05:09:48.147Z,19.94
2022-09-15T05:12:54.408Z,19.95
2022-09-15T05:16:07.183Z,19.97
2022-09-15T05:19:13.653Z,20.01
2022-09-15T05:22:19.534Z,20.04
2022-09-15T05:25:25.694Z,20.07
2022-09-15T05:28:33.925Z,20.10
2022-09-15T05:31:39.868Z,20.14
2022-09-15T05:34:44.327Z,20.16
2022-09-15T05:37:50.541Z,20.16
2022-09-15T05:40:56.405Z,20.22
2022-09-15T05:44:02.261Z,20.26
2022-09-15T05:47:08.578Z,20.28
2022-09-15T05:50:14.966Z,20.31
2022-09-15T05:53:21.712Z,20.36
2022-09-15T05:56:27.618Z,20.41
2022-09-15T05:59:33.490Z,20.46
2022-09-15T06:02:39.387Z,20.49
2022-09-15T06:05:45.418Z,20.52
2022-09-15T06:08:58.125Z,20.54
2022-09-15T06:12:05.860Z,20.55
2022-09-15T06:15:13.219Z,20.57
2022-09-15T06:18:19.096Z,20.60
2022-09-15T06:21:26.781Z,20.63
2022-09-15T06:24:32.658Z,20.66
2022-09-15T06:27:38.526Z,20.70
2022-09-15T06:30:49.028Z,20.76
2022-09-15T06:33:57.881Z,20.82
2022-09-15T06:37:03.814Z,20.91
2022-09-15T06:40:12.085Z,21.00
2022-09-15T06:43:17.953Z,21.07
2022-09-15T06:46:25.652Z,21.15
2022-09-15T06:49:31.962Z,21.24
2022-09-15T06:52:37.835Z,21.35
2022-09-15T06:55:43.716Z,21.47
2022-09-15T06:58:50.306Z,21.56
2022-09-15T07:02:00.337Z,21.62
2022-09-15T07:05:11.637Z,21.70
2022-09-15T07:08:17.563Z,21.79
2022-09-15T07:11:21.781Z,21.87
2022-09-15T07:14:27.641Z,21.92
2022-09-15T07:17:33.534Z,22.01
2022-09-15T07:20:39.690Z,22.09
2022-09-15T07:23:46.370Z,22.12
2022-09-15T07:26:52.193Z,22.18
2022-09-15T07:29:58.106Z,22.23
2022-09-15T07:33:02.305Z,22.26
2022-09-15T07:36:10.255Z,22.24
2022-09-15T07:39:16.108Z,22.24
2022-09-15T07:42:21.975Z,22.24
2022-09-15T07:45:28.007Z,22.25
2022-09-15T07:48:34.225Z,22.26
2022-09-15T07:51:40.070Z,22.27
2022-09-15T07:54:45.921Z,22.29
2022-09-15T07:57:59.722Z,22.29
2022-09-15T08:01:07.555Z,22.31
2022-09-15T08:04:13.505Z,22.34
2022-09-15T08:07:17.773Z,22.33
2022-09-15T08:10:25.344Z,22.32
2022-09-15T08:13:31.652Z,22.35
2022-09-15T08:16:37.680Z,22.36
2022-09-15T08:19:43.667Z,22.36
2022-09-15T08:22:48.311Z,22.36
2022-09-15T08:25:54.196Z,22.33
2022-09-15T08:28:59.355Z,22.36
2022-09-15T08:32:05.643Z,22.36
2022-09-15T08:35:12.257Z,22.41
2022-09-15T08:38:18.108Z,22.45
2022-09-15T08:41:26.958Z,22.46
2022-09-15T08:44:44.486Z,22.44
2022-09-15T08:47:56.083Z,22.37
2022-09-15T08:51:06.968Z,22.25
2022-09-15T08:54:20.717Z,22.11
2022-09-15T08:57:27.677Z,22.02
2022-09-15T09:00:33.947Z,21.98
2022-09-15T09:03:59.176Z,21.86
2022-09-15T09:07:18.539Z,21.66
2022-09-15T09:10:33.111Z,21.52
2022-09-15T09:13:47.921Z,21.47
2022-09-15T09:17:04.360Z,21.37
2022-09-15T09:20:32.166Z,21.18
2022-09-15T09:23:48.657Z,20.97
2022-09-15T09:26:56.639Z,20.80
2022-09-15T09:30:08.767Z,20.69
2022-09-15T09:33:26.867Z,20.64
2022-09-15T09:36:32.799Z,20.65
2022-09-15T09:39:37.245Z,20.67
2022-09-15T09:42:44.706Z,20.67
2022-09-15T09:45:50.620Z,20.69
2022-09-15T09:48:58.430Z,20.70
2022-09-15T09:52:05.302Z,20.68
2022-09-15T09:55:24.003Z,20.68
2022-09-15T09:58:29.860Z,20.70
2022-09-15T10:01:35.781Z,20.75
2022-09-15T10:04:40.426Z,20.85
2022-09-15T10:07:46.409Z,20.94
2022-09-15T10:10:55.988Z,21.08
2022-09-15T10:14:02.174Z,21.18
2022-09-15T10:17:11.860Z,21.28
2022-09-15T10:20:32.581Z,21.37
2022-09-15T10:23:38.804Z,21.44
2022-09-15T10:26:46.078Z,21.47
2022-09-15T10:29:52.022Z,21.52
2022-09-15T10:32:56.909Z,21.56
2022-09-15T10:36:12.973Z,21.57
2022-09-15T10:39:31.881Z,21.63
2022-09-15T10:43:00.528Z,21.68
2022-09-15T10:46:13.912Z,21.74
2022-09-15T10:49:34.571Z,21.77
2022-09-15T10:52:50.666Z,21.83
2022-09-15T10:56:04.635Z,21.89
2022-09-15T10:59:35.501Z,21.96
2022-09-15T11:03:23.593Z,22.03
2022-09-15T11:06:37.641Z,22.10
2022-09-15T11:09:48.385Z,22.15
2022-09-15T11:13:03.985Z,22.21
2022-09-15T11:16:17.346Z,22.32
2022-09-15T11:19:38.915Z,22.41
2022-09-15T11:22:49.897Z,22.45
2022-09-15T11:26:01.654Z,22.47
2022-09-15T11:29:15.169Z,22.47
2022-09-15T11:32:26.918Z,22.51
2022-09-15T11:35:39.217Z,22.57
2022-09-15T11:38:53.222Z,22.62
2022-09-15T11:42:08.725Z,22.66
2022-09-15T11:45:20.081Z,22.69
2022-09-15T11:48:31.674Z,22.75
2022-09-15T11:51:42.482Z,22.80
2022-09-15T11:54:54.861Z,22.86
2022-09-15T11:58:21.055Z,22.92
2022-09-15T12:01:31.364Z,22.97
2022-09-15T12:04:44.218Z,22.99
2022-09-15T12:07:56.961Z,23.01
2022-09-15T12:11:08.869Z,23.04
2022-09-15T12:14:18.302Z,23.06
2022-09-15T12:17:37.042Z,23.09
2022-09-15T12:20:49.989Z,23.13
2022-09-15T12:24:01.562Z,23.20
2022-09-15T12:27:11.526Z,23.29
2022-09-15T12:30:41.224Z,23.36
2022-09-15T12:33:57.048Z,23.40
2022-09-15T12:37:12.719Z,23.45
2022-09-15T12:40:33.833Z,23.49
2022-09-15T12:43:39.897Z,23.51
2022-09-15T12:46:54.400Z,23.54
2022-09-15T12:50:06.898Z,23.54
2022-09-15T12:53:22.931Z,23.51
2022-09-15T12:56:31.339Z,23.51
2022-09-15T12:59:37.213Z,23.52
2022-09-15T13:02:45.747Z,23.55
2022-09-15T13:06:10.114Z,23.55
2022-09-15T13:09:29.466Z,23.59
2022-09-15T13:12:42.512Z,23.62
2022-09-15T13:15:52.318Z,23.63
2022-09-15T13:19:07.559Z,23.59
2022-09-15T13:22:23.882Z,23.54
2022-09-15T13:25:31.912Z,23.50
2022-09-15T13:28:38.518Z,23.47
2022-09-15T13:31:53.514Z,23.45
2022-09-15T13:35:25.135Z,23.43
2022-09-15T13:38:52.114Z,23.39
2022-09-15T13:42:19.635Z,23.34
2022-09-15T13:45:42.818Z,23.30
2022-09-15T13:49:00.531Z,23.27
2022-09-15T13:52:25.269Z,23.24
2022-09-15T13:55:33.878Z,23.21
2022-09-15T13:59:06.761Z,23.18
2022-09-15T14:02:13.025Z,23.15
2022-09-15T14:05:21.419Z,23.11
2022-09-15T14:08:32.397Z,23.06
2022-09-15T14:11:40.791Z,23.00
2022-09-15T14:14:52.436Z,22.96
2022-09-15T14:17:58.702Z,22.92
2022-09-15T14:21:06.614Z,22.87
2022-09-15T14:24:22.623Z,22.81
2022-09-15T14:27:31.385Z,22.76
2022-09-15T14:30:38.263Z,22.72
2022-09-15T14:33:46.939Z,22.67
2022-09-15T14:37:04.671Z,22.62
2022-09-15T14:40:24.835Z,22.57
2022-09-15T14:43:35.732Z,22.52
2022-09-15T14:46:41.666Z,22.49
2022-09-15T14:49:45.918Z,22.47
2022-09-15T14:52:54.602Z,22.42
2022-09-15T14:56:08.310Z,22.41
2022-09-15T14:59:20.757Z,22.37
2022-09-15T15:02:35.325Z,22.33
2022-09-15T15:05:46.434Z,22.29
2022-09-15T15:08:58.286Z,22.25
2022-09-15T15:12:09.178Z,22.20
2022-09-15T15:15:17.143Z,22.16
2022-09-15T15:18:39.186Z,22.12
2022-09-15T15:21:48.323Z,22.09
2022-09-15T15:24:55.142Z,22.06
2022-09-15T15:28:02.099Z,22.03
2022-09-15T15:31:17.202Z,22.00
2022-09-15T15:34:26.674Z,21.97
2022-09-15T15:37:34.680Z,21.95
2022-09-15T15:40:41.903Z,21.95
2022-09-15T15:44:00.242Z,21.92
2022-09-15T15:47:26.478Z,21.88
2022-09-15T15:50:33.491Z,21.85
2022-09-15T15:53:40.345Z,21.82
2022-09-15T15:56:47.073Z,21.79
2022-09-15T16:00:00.722Z,21.77
2022-09-15T16:03:07.270Z,21.76
2022-09-15T16:06:13.637Z,21.73
2022-09-15T16:09:21.441Z,21.71
2022-09-15T16:12:30.690Z,21.68
2022-09-15T16:15:39.135Z,21.67
2022-09-15T16:18:43.586Z,21.67
2022-09-15T16:21:49.451Z,21.63
2022-09-15T16:24:55.809Z,21.65
2022-09-15T16:28:01.819Z,21.63
2022-09-15T16:31:10.330Z,21.63
2022-09-15T16:34:21.585Z,21.63
2022-09-15T16:37:27.473Z,21.61
2022-09-15T16:40:31.745Z,21.60
2022-09-15T16:43:37.650Z,21.56
2022-09-15T16:46:44.002Z,21.55
2022-09-15T16:49:51.367Z,21.53
2022-09-15T16:52:57.675Z,21.51
2022-09-15T16:56:03.879Z,21.50
2022-09-15T16:59:09.823Z,21.48
2022-09-15T17:02:15.394Z,21.48
2022-09-15T17:05:22.138Z,21.42
2022-09-15T17:08:30.278Z,21.41
2022-09-15T17:11:36.143Z,21.41
2022-09-15T17:14:42.020Z,21.41
2022-09-15T17:17:48.299Z,21.39
2022-09-15T17:20:54.270Z,21.38
2022-09-15T17:23:58.510Z,21.36
2022-09-15T17:27:04.386Z,21.30
2022-09-15T17:30:13.314Z,21.28
2022-09-15T17:33:20.886Z,21.26
2022-09-15T17:36:27.361Z,21.23
2022-09-15T17:39:34.322Z,21.19
2022-09-15T17:42:40.243Z,21.14
2022-09-15T17:45:44.531Z,21.09
2022-09-15T17:48:50.395Z,21.04
2022-09-15T17:51:56.268Z,21.04
2022-09-15T17:55:02.381Z,21.03
2022-09-15T17:58:08.550Z,21.00
2022-09-15T18:01:16.478Z,20.97
2022-09-15T18:04:22.473Z,20.95
2022-09-15T18:07:26.938Z,20.92
2022-09-15T18:10:34.022Z,20.89
2022-09-15T18:13:40.149Z,20.89
2022-09-15T18:16:47.051Z,20.88
2022-09-15T18:19:53.406Z,20.86
2022-09-15T18:23:00.321Z,20.85
2022-09-15T18:26:06.260Z,20.84
2022-09-15T18:29:10.542Z,20.82
2022-09-15T18:32:16.426Z,20.75
2022-09-15T18:35:24.077Z,20.70
2022-09-15T18:38:30.076Z,20.68
2022-09-15T18:41:37.652Z,20.68
2022-09-15T18:44:43.693Z,20.65
2022-09-15T18:47:51.929Z,20.65
2022-09-15T18:50:58.257Z,20.63
2022-09-15T18:54:04.783Z,20.59
2022-09-15T18:57:10.970Z,20.54
2022-09-15T19:00:19.742Z,20.51
2022-09-15T19:03:25.620Z,20.48
2022-09-15T19:06:31.847Z,20.46
2022-09-15T19:09:38.367Z,20.46
2022-09-15T19:12:44.620Z,20.48
2022-09-15T19:15:53.432Z,20.48
2022-09-15T19:18:59.679Z,20.46
2022-09-15T19:22:03.895Z,20.48
2022-09-15T19:25:12.236Z,20.46
2022-09-15T19:28:18.102Z,20.48
2022-09-15T19:31:24.623Z,20.46
2022-09-15T19:34:30.686Z,20.45
2022-09-15T19:37:36.898Z,20.43
2022-09-15T19:40:42.799Z,20.38
2022-09-15T19:43:48.697Z,20.38
2022-09-15T19:46:54.905Z,20.35
2022-09-15T19:50:00.975Z,20.32
2022-09-15T19:53:05.250Z,20.30
2022-09-15T19:56:17.059Z,20.25
2022-09-15T19:59:27.396Z,20.24
2022-09-15T20:02:36.513Z,20.21
2022-09-15T20:05:42.716Z,20.19
2022-09-15T20:08:48.890Z,20.16
2022-09-15T20:11:54.997Z,20.11
2022-09-15T20:15:01.075Z,20.09
2022-09-15T20:18:06.519Z,20.05
2022-09-15T20:21:26.769Z,19.98
2022-09-15T20:24:39.075Z,19.98
2022-09-15T20:27:45.398Z,19.98
2022-09-15T20:31:01.431Z,19.98
2022-09-15T20:34:07.592Z,19.97
2022-09-15T20:37:13.890Z,19.96
2022-09-15T20:40:20.076Z,19.96
2022-09-15T20:43:26.434Z,19.93
2022-09-15T20:46:32.645Z,19.90
2022-09-15T20:49:39.364Z,19.87
2022-09-15T20:52:45.751Z,19.85
2022-09-15T20:55:54.697Z,19.82
2022-09-15T20:59:01.866Z,19.79
2022-09-15T21:02:09.355Z,19.76
2022-09-15T21:05:15.486Z,19.72
2022-09-15T21:08:21.558Z,19.69
2022-09-15T21:11:26.705Z,19.67
2022-09-15T21:14:32.797Z,19.62
2022-09-15T21:17:37.421Z,19.61
2022-09-15T21:20:43.619Z,19.59
2022-09-15T21:23:51.573Z,19.59
2022-09-15T21:27:15.038Z,19.57
2022-09-15T21:30:21.823Z,19.54
2022-09-15T21:33:28.039Z,19.48
2022-09-15T21:36:34.582Z,19.44
2022-09-15T21:39:40.732Z,19.44
2022-09-15T21:42:46.922Z,19.41
2022-09-15T21:45:58.188Z,19.39
2022-09-15T21:49:04.391Z,19.36
2022-09-15T21:52:11.004Z,19.31
2022-09-15T21:55:17.197Z,19.26
2022-09-15T21:58:26.026Z,19.20
2022-09-15T22:01:34.139Z,19.14
2022-09-15T22:04:40.255Z,19.10
2022-09-15T22:07:44.691Z,19.08
2022-09-15T22:10:50.762Z,19.01
2022-09-15T22:13:55.907Z,19.00
2022-09-15T22:17:01.990Z,18.95
2022-09-15T22:20:09.383Z,18.94
2022-09-15T22:23:15.471Z,18.91
2022-09-15T22:26:20.970Z,18.91
2022-09-15T22:29:27.338Z,18.86
2022-09-15T22:32:33.474Z,18.85
2022-09-15T22:35:37.863Z,18.82
2022-09-15T22:38:44.499Z,18.75
2022-09-15T22:41:50.709Z,18.72
2022-09-15T22:44:55.436Z,18.68
2022-09-15T22:48:01.551Z,18.61
2022-09-15T22:51:05.918Z,18.61
2022-09-15T22:54:12.052Z,18.60
2022-09-15T22:57:16.446Z,18.62
2022-09-15T23:00:23.496Z,18.59
2022-09-15T23:03:29.447Z,18.58
2022-09-15T23:06:36.758Z,18.55
2022-09-15T23:09:42.720Z,18.53
2022-09-15T23:12:48.567Z,18.51
2022-09-15T23:15:54.489Z,18.50
2022-09-15T23:19:01.002Z,18.49
2022-09-15T23:22:06.927Z,18.50
2022-09-15T23:25:13.326Z,18.49
2022-09-15T23:28:19.448Z,18.46
2022-09-15T23:31:24.063Z,18.44
2022-09-15T23:34:30.051Z,18.39
2022-09-15T23:37:36.175Z,18.39
2022-09-15T23:40:41.427Z,18.39
2022-09-15T23:43:47.596Z,18.35
2022-09-15T23:46:53.574Z,18.35
2022-09-15T23:49:57.827Z,18.35
2022-09-15T23:53:03.750Z,18.31
2022-09-15T23:56:09.900Z,18.32
2022-09-15T23:59:14.139Z,18.30
